Terminal Aerodrome Forecast
Issued by NWS Knoxville/Tri Cities, TN

Home | Current Version | Previous Version | Text Only | Print | Product List | Glossary On
Versions: 1 2 3 4 5 6 7 8 9 10 11 12 13
000
FTUS44 KMRX 250531
TAFTYS
TAF
KTYS 250531Z 2506/2606 19007KT P6SM BKN250
     FM251500 21013G22KT P6SM SCT050 BKN200
     FM252100 20010KT P6SM BKN150
     FM260300 17008KT P6SM VCSH BKN050=

USA.gov is the U.S. government's official web portal to all federal, state and local government web resources and services.